createdAt,value
2018-08-04T00:01:04.818Z,0
2018-08-04T00:02:14.649Z,0
2018-08-04T00:03:24.398Z,0
2018-08-04T00:04:33.302Z,0
2018-08-04T00:05:42.449Z,0
2018-08-04T00:06:51.846Z,0
2018-08-04T00:08:01.002Z,0
2018-08-04T00:09:10.477Z,0
2018-08-04T00:10:19.366Z,0
2018-08-04T00:11:29.029Z,0
2018-08-04T00:12:38.778Z,0
2018-08-04T00:13:48.193Z,0
2018-08-04T00:14:57.600Z,0
2018-08-04T00:16:07.285Z,0
2018-08-04T00:17:16.699Z,0
2018-08-04T00:18:25.890Z,0
2018-08-04T00:19:35.365Z,0
2018-08-04T00:20:44.819Z,0
2018-08-04T00:21:54.472Z,0
2018-08-04T00:23:03.412Z,0
2018-08-04T00:24:13.366Z,0
2018-08-04T00:25:22.509Z,0
2018-08-04T00:26:31.411Z,0
2018-08-04T00:27:41.077Z,0
2018-08-04T00:28:51.000Z,0
2018-08-04T00:30:00.402Z,0
2018-08-04T00:31:09.795Z,0
2018-08-04T00:32:19.217Z,0
2018-08-04T00:33:28.562Z,0
2018-08-04T00:34:37.752Z,0
2018-08-04T00:35:46.901Z,0
2018-08-04T00:36:56.829Z,0
2018-08-04T00:38:06.754Z,0
2018-08-04T00:39:16.154Z,0
2018-08-04T00:40:25.333Z,0
2018-08-04T00:41:34.733Z,0
2018-08-04T00:42:44.143Z,0
2018-08-04T00:43:53.308Z,0
2018-08-04T00:45:02.487Z,0
2018-08-04T00:46:11.652Z,0
2018-08-04T00:47:21.080Z,0
2018-08-04T00:48:30.237Z,0
2018-08-04T00:49:39.383Z,0
2018-08-04T00:50:48.534Z,0
2018-08-04T00:51:57.685Z,0
2018-08-04T00:53:07.831Z,0
2018-08-04T00:54:17.263Z,0
2018-08-04T00:55:26.687Z,0
2018-08-04T00:56:35.586Z,0
2018-08-04T00:57:44.752Z,0
2018-08-04T00:58:54.153Z,0
2018-08-04T01:00:03.571Z,0
2018-08-04T01:01:12.984Z,0
2018-08-04T01:02:22.144Z,0
2018-08-04T01:03:31.829Z,0
2018-08-04T01:04:41.265Z,0
2018-08-04T01:05:50.929Z,0
2018-08-04T01:06:59.845Z,0
2018-08-04T01:08:08.994Z,0
2018-08-04T01:09:17.929Z,0
2018-08-04T01:10:27.377Z,0
2018-08-04T01:11:36.532Z,0
2018-08-04T01:12:45.705Z,0
2018-08-04T01:13:55.182Z,0
2018-08-04T01:15:04.066Z,0
2018-08-04T01:16:13.230Z,0
2018-08-04T01:17:23.177Z,0
2018-08-04T01:18:32.102Z,0
2018-08-04T01:19:41.264Z,0
2018-08-04T01:20:51.190Z,0
2018-08-04T01:22:00.089Z,0
2018-08-04T01:23:09.512Z,0
2018-08-04T01:24:18.932Z,0
2018-08-04T01:25:28.093Z,0
2018-08-04T01:26:37.060Z,0
2018-08-04T01:27:46.228Z,0
2018-08-04T01:28:55.393Z,0
2018-08-04T01:30:04.804Z,0
2018-08-04T01:31:14.239Z,0
2018-08-04T01:32:23.900Z,0
2018-08-04T01:33:33.047Z,0
2018-08-04T01:34:42.462Z,0
2018-08-04T01:35:51.636Z,0
2018-08-04T01:37:01.318Z,0
2018-08-04T01:38:11.262Z,0
2018-08-04T01:39:20.695Z,0
2018-08-04T01:40:30.129Z,0
2018-08-04T01:41:39.282Z,0
2018-08-04T01:42:48.954Z,0
2018-08-04T01:43:58.746Z,0
2018-08-04T01:45:08.437Z,0
2018-08-04T01:46:18.087Z,0
2018-08-04T01:47:27.640Z,0
2018-08-04T01:48:36.881Z,0
2018-08-04T01:49:46.105Z,0
2018-08-04T01:50:55.523Z,0
2018-08-04T01:52:05.569Z,0
2018-08-04T01:53:15.071Z,0
2018-08-04T01:54:24.496Z,0
2018-08-04T01:55:33.924Z,0
2018-08-04T01:56:43.344Z,0
2018-08-04T01:57:52.496Z,0
2018-08-04T01:59:01.932Z,0
2018-08-04T02:00:11.641Z,0
2018-08-04T02:01:20.554Z,0
2018-08-04T02:02:29.962Z,0
2018-08-04T02:03:39.365Z,0
2018-08-04T02:04:48.538Z,0
2018-08-04T02:05:57.960Z,0
2018-08-04T02:07:06.926Z,0
2018-08-04T02:08:16.141Z,0
2018-08-04T02:09:25.321Z,0
2018-08-04T02:10:34.750Z,0
2018-08-04T02:11:43.664Z,0
2018-08-04T02:12:53.097Z,0
2018-08-04T02:14:02.001Z,0
2018-08-04T02:15:11.415Z,0
2018-08-04T02:16:20.575Z,0
2018-08-04T02:17:30.497Z,0
2018-08-04T02:18:39.649Z,0
2018-08-04T02:19:48.564Z,0
2018-08-04T02:20:57.978Z,0
2018-08-04T02:22:07.390Z,0
2018-08-04T02:23:16.822Z,0
2018-08-04T02:24:25.480Z,0
2018-08-04T02:25:34.922Z,0
2018-08-04T02:26:44.329Z,0
2018-08-04T02:27:53.993Z,0
2018-08-04T02:29:02.641Z,0
2018-08-04T02:30:11.814Z,0
2018-08-04T02:31:20.992Z,0
2018-08-04T02:32:30.421Z,0
2018-08-04T02:33:40.113Z,0
2018-08-04T02:34:49.798Z,0
2018-08-04T02:35:59.214Z,0
2018-08-04T02:37:08.387Z,0
2018-08-04T02:38:17.018Z,0
2018-08-04T02:39:26.680Z,0
2018-08-04T02:40:36.368Z,0
2018-08-04T02:41:46.059Z,0
2018-08-04T02:42:55.755Z,0
2018-08-04T02:44:05.451Z,0
2018-08-04T02:45:14.874Z,0
2018-08-04T02:46:24.575Z,0
2018-08-04T02:47:33.743Z,0
2018-08-04T02:48:43.424Z,0
2018-08-04T02:49:52.334Z,0
2018-08-04T02:51:02.017Z,0
2018-08-04T02:52:10.918Z,0
2018-08-04T02:53:20.604Z,0
2018-08-04T02:54:30.294Z,0
2018-08-04T02:55:39.710Z,0
2018-08-04T02:56:48.638Z,0
2018-08-04T02:57:58.064Z,0
2018-08-04T02:59:07.896Z,0
2018-08-04T03:00:17.286Z,0
2018-08-04T03:01:26.700Z,0
2018-08-04T03:02:36.378Z,0
2018-08-04T03:03:46.067Z,0
2018-08-04T03:04:54.981Z,0
2018-08-04T03:06:03.621Z,0
2018-08-04T03:07:12.789Z,0
2018-08-04T03:08:22.319Z,0
2018-08-04T03:09:32.013Z,0
2018-08-04T03:10:41.448Z,0
2018-08-04T03:11:50.336Z,0
2018-08-04T03:12:59.768Z,0
2018-08-04T03:14:09.214Z,0
2018-08-04T03:15:18.906Z,0
2018-08-04T03:16:28.569Z,0
2018-08-04T03:17:38.264Z,0
2018-08-04T03:18:47.681Z,0
2018-08-04T03:19:56.852Z,0
2018-08-04T03:21:06.577Z,0
2018-08-04T03:22:16.250Z,0
2018-08-04T03:23:25.410Z,0
2018-08-04T03:24:34.837Z,0
2018-08-04T03:25:44.249Z,0
2018-08-04T03:26:53.907Z,0
2018-08-04T03:28:03.310Z,0
2018-08-04T03:29:12.723Z,0
2018-08-04T03:30:22.168Z,0
2018-08-04T03:31:31.348Z,0
2018-08-04T03:32:41.017Z,0
2018-08-04T03:33:50.160Z,0
2018-08-04T03:35:00.097Z,0
2018-08-04T03:36:09.253Z,0
2018-08-04T03:37:18.156Z,0
2018-08-04T03:38:27.559Z,0
2018-08-04T03:39:37.229Z,0
2018-08-04T03:40:46.133Z,0
2018-08-04T03:41:55.316Z,0
2018-08-04T03:43:04.267Z,0
2018-08-04T03:44:13.420Z,0
2018-08-04T03:45:22.831Z,0
2018-08-04T03:46:33.005Z,0
2018-08-04T03:47:42.419Z,0
2018-08-04T03:48:51.043Z,0
2018-08-04T03:50:00.237Z,0
2018-08-04T03:51:08.875Z,0
2018-08-04T03:52:18.287Z,0
2018-08-04T03:53:27.736Z,0
2018-08-04T03:54:36.632Z,0
2018-08-04T03:55:46.312Z,0
2018-08-04T03:56:55.254Z,0
2018-08-04T03:58:04.661Z,0
2018-08-04T03:59:13.553Z,0
2018-08-04T04:00:22.713Z,0
2018-08-04T04:01:32.122Z,0
2018-08-04T04:02:41.799Z,0
2018-08-04T04:03:50.951Z,0
2018-08-04T04:05:00.388Z,0
2018-08-04T04:06:09.817Z,0
2018-08-04T04:07:19.227Z,0
2018-08-04T04:08:28.672Z,0
2018-08-04T04:09:37.833Z,0
2018-08-04T04:10:47.533Z,0
2018-08-04T04:11:56.688Z,0
2018-08-04T04:13:06.082Z,0
2018-08-04T04:14:15.243Z,0
2018-08-04T04:15:24.663Z,0
2018-08-04T04:16:34.097Z,0
2018-08-04T04:17:43.770Z,0
2018-08-04T04:18:53.176Z,0
2018-08-04T04:20:02.337Z,0
2018-08-04T04:21:11.264Z,0
2018-08-04T04:22:20.948Z,0
2018-08-04T04:23:30.366Z,0
2018-08-04T04:24:39.300Z,0
2018-08-04T04:25:48.711Z,0
2018-08-04T04:26:58.168Z,0
2018-08-04T04:28:07.922Z,0
2018-08-04T04:29:17.353Z,0
2018-08-04T04:30:26.529Z,0
2018-08-04T04:31:36.225Z,0
2018-08-04T04:32:45.391Z,0
2018-08-04T04:33:54.285Z,0
2018-08-04T04:35:03.443Z,0
2018-08-04T04:36:12.849Z,0
2018-08-04T04:37:21.749Z,4
2018-08-04T04:38:30.648Z,4
2018-08-04T04:39:39.576Z,4
2018-08-04T04:40:48.994Z,4
2018-08-04T04:41:58.400Z,0
2018-08-04T04:43:07.051Z,0
2018-08-04T04:44:16.209Z,0
2018-08-04T04:45:25.368Z,0
2018-08-04T04:46:34.801Z,4
2018-08-04T04:47:44.216Z,4
2018-08-04T04:48:53.656Z,4
2018-08-04T04:50:03.326Z,4
2018-08-04T04:51:13.009Z,0
2018-08-04T04:52:22.695Z,0
2018-08-04T04:53:31.856Z,4
2018-08-04T04:54:41.063Z,4
2018-08-04T04:55:50.211Z,4
2018-08-04T04:56:59.388Z,4
2018-08-04T04:58:08.554Z,4
2018-08-04T04:59:17.447Z,4
2018-08-04T05:00:26.351Z,4
2018-08-04T05:01:35.518Z,4
2018-08-04T05:02:44.947Z,4
2018-08-04T05:03:54.373Z,4
2018-08-04T05:05:03.533Z,4
2018-08-04T05:06:12.964Z,4
2018-08-04T05:07:22.434Z,4
2018-08-04T05:08:31.847Z,4
2018-08-04T05:09:41.257Z,4
2018-08-04T05:10:50.676Z,4
2018-08-04T05:11:59.832Z,4
2018-08-04T05:13:09.036Z,4
2018-08-04T05:14:18.740Z,4
2018-08-04T05:15:28.429Z,4
2018-08-04T05:16:37.834Z,8
2018-08-04T05:17:47.265Z,4
2018-08-04T05:18:56.703Z,4
2018-08-04T05:20:05.851Z,4
2018-08-04T05:21:15.012Z,4
2018-08-04T05:22:24.683Z,4
2018-08-04T05:23:33.589Z,4
2018-08-04T05:24:42.506Z,4
2018-08-04T05:25:51.962Z,4
2018-08-04T05:27:01.376Z,4
2018-08-04T05:28:10.573Z,4
2018-08-04T05:29:19.990Z,4
2018-08-04T05:30:29.161Z,4
2018-08-04T05:31:38.060Z,4
2018-08-04T05:32:47.225Z,4
2018-08-04T05:33:56.698Z,4
2018-08-04T05:35:06.117Z,4
2018-08-04T05:36:15.809Z,4
2018-08-04T05:37:25.673Z,4
2018-08-04T05:38:35.528Z,8
2018-08-04T05:39:44.672Z,4
2018-08-04T05:40:54.342Z,4
2018-08-04T05:42:03.755Z,8
2018-08-04T05:43:13.821Z,4
2018-08-04T05:44:22.996Z,4
2018-08-04T05:45:32.416Z,4
2018-08-04T05:46:41.832Z,4
2018-08-04T05:47:51.504Z,8
2018-08-04T05:49:01.180Z,8
2018-08-04T05:50:10.771Z,8
2018-08-04T05:51:20.194Z,8
2018-08-04T05:52:29.085Z,8
2018-08-04T05:53:37.728Z,8
2018-08-04T05:54:47.156Z,16
2018-08-04T05:55:56.044Z,16
2018-08-04T05:57:05.455Z,16
2018-08-04T05:58:14.872Z,20
2018-08-04T05:59:24.277Z,20
2018-08-04T06:00:33.434Z,16
2018-08-04T06:01:42.847Z,8
2018-08-04T06:02:52.007Z,12
2018-08-04T06:04:00.905Z,8
2018-08-04T06:05:09.795Z,8
2018-08-04T06:06:18.998Z,8
2018-08-04T06:07:28.155Z,8
2018-08-04T06:08:36.794Z,8
2018-08-04T06:09:45.693Z,8
2018-08-04T06:10:55.103Z,8
2018-08-04T06:12:04.768Z,12
2018-08-04T06:13:14.433Z,12
2018-08-04T06:14:23.339Z,8
2018-08-04T06:15:32.483Z,8
2018-08-04T06:16:41.896Z,12
2018-08-04T06:17:51.566Z,12
2018-08-04T06:19:00.707Z,12
2018-08-04T06:20:10.112Z,8
2018-08-04T06:21:19.510Z,8
2018-08-04T06:22:28.665Z,12
2018-08-04T06:23:37.816Z,12
2018-08-04T06:24:46.710Z,12
2018-08-04T06:25:55.604Z,12
2018-08-04T06:27:04.781Z,8
2018-08-04T06:28:14.243Z,8
2018-08-04T06:29:24.034Z,8
2018-08-04T06:30:33.570Z,8
2018-08-04T06:31:43.391Z,8
2018-08-04T06:32:52.571Z,12
2018-08-04T06:34:01.991Z,8
2018-08-04T06:35:11.662Z,8
2018-08-04T06:36:21.088Z,8
2018-08-04T06:37:30.781Z,8
2018-08-04T06:38:39.663Z,8
2018-08-04T06:39:48.575Z,8
2018-08-04T06:40:58.250Z,8
2018-08-04T06:42:07.654Z,8
2018-08-04T06:43:16.805Z,12
2018-08-04T06:44:25.967Z,12
2018-08-04T06:45:35.120Z,8
2018-08-04T06:46:44.794Z,12
2018-08-04T06:47:54.203Z,12
2018-08-04T06:49:03.607Z,12
2018-08-04T06:50:12.508Z,12
2018-08-04T06:51:21.908Z,12
2018-08-04T06:52:31.058Z,24
2018-08-04T06:53:40.465Z,20
2018-08-04T06:54:49.886Z,20
2018-08-04T06:55:59.052Z,20
2018-08-04T06:57:08.197Z,20
2018-08-04T06:58:17.420Z,20
2018-08-04T06:59:27.016Z,20
2018-08-04T07:00:36.424Z,16
2018-08-04T07:01:45.322Z,16
2018-08-04T07:02:54.739Z,16
2018-08-04T07:04:04.408Z,12
2018-08-04T07:05:13.318Z,16
2018-08-04T07:06:22.493Z,12
2018-08-04T07:07:31.641Z,12
2018-08-04T07:08:41.322Z,16
2018-08-04T07:09:50.997Z,28
2018-08-04T07:11:00.402Z,24
2018-08-04T07:12:09.825Z,36
2018-08-04T07:13:19.239Z,36
2018-08-04T07:14:28.394Z,32
2018-08-04T07:15:37.820Z,32
2018-08-04T07:16:47.234Z,36
2018-08-04T07:17:56.929Z,36
2018-08-04T07:19:06.622Z,32
2018-08-04T07:20:16.031Z,36
2018-08-04T07:21:25.664Z,24
2018-08-04T07:22:35.090Z,24
2018-08-04T07:23:44.519Z,20
2018-08-04T07:24:53.943Z,20
2018-08-04T07:26:02.878Z,20
2018-08-04T07:27:12.035Z,16
2018-08-04T07:28:21.718Z,12
2018-08-04T07:29:30.890Z,12
2018-08-04T07:30:40.551Z,12
2018-08-04T07:31:50.238Z,12
2018-08-04T07:32:59.452Z,16
2018-08-04T07:34:08.347Z,16
2018-08-04T07:35:18.048Z,16
2018-08-04T07:36:27.233Z,12
2018-08-04T07:37:37.363Z,16
2018-08-04T07:38:46.521Z,16
2018-08-04T07:39:55.677Z,20
2018-08-04T07:41:05.850Z,24
2018-08-04T07:42:15.583Z,28
2018-08-04T07:43:25.508Z,24
2018-08-04T07:44:35.186Z,24
2018-08-04T07:45:44.603Z,28
2018-08-04T07:46:53.790Z,28
2018-08-04T07:48:03.219Z,28
2018-08-04T07:49:12.644Z,28
2018-08-04T07:50:21.890Z,28
2018-08-04T07:51:31.632Z,28
2018-08-04T07:52:40.855Z,28
2018-08-04T07:53:50.035Z,28
2018-08-04T07:54:59.455Z,24
2018-08-04T07:56:09.143Z,28
2018-08-04T07:57:19.065Z,28
2018-08-04T07:58:28.223Z,32
2018-08-04T07:59:37.559Z,32
2018-08-04T08:00:46.724Z,36
2018-08-04T08:01:55.886Z,24
2018-08-04T08:03:05.558Z,24
2018-08-04T08:04:15.257Z,24
2018-08-04T08:05:24.677Z,32
2018-08-04T08:06:34.113Z,28
2018-08-04T08:07:43.535Z,40
2018-08-04T08:08:52.696Z,36
2018-08-04T08:10:01.592Z,36
2018-08-04T08:11:11.059Z,36
2018-08-04T08:12:20.327Z,36
2018-08-04T08:13:29.754Z,32
2018-08-04T08:14:39.408Z,32
2018-08-04T08:15:49.073Z,36
2018-08-04T08:16:58.248Z,40
2018-08-04T08:18:07.649Z,36
2018-08-04T08:19:17.375Z,40
2018-08-04T08:20:27.409Z,32
2018-08-04T08:21:36.588Z,28
2018-08-04T08:22:46.271Z,32
2018-08-04T08:23:56.328Z,32
2018-08-04T08:25:05.752Z,32
2018-08-04T08:26:15.461Z,36
2018-08-04T08:27:24.897Z,40
2018-08-04T08:28:33.545Z,40
2018-08-04T08:29:42.719Z,40
2018-08-04T08:30:52.381Z,32
2018-08-04T08:32:02.063Z,32
2018-08-04T08:33:11.215Z,28
2018-08-04T08:34:20.900Z,36
2018-08-04T08:35:30.856Z,36
2018-08-04T08:36:40.036Z,36
2018-08-04T08:37:49.471Z,40
2018-08-04T08:38:58.892Z,40
2018-08-04T08:40:08.308Z,40
2018-08-04T08:41:17.713Z,40
2018-08-04T08:42:26.868Z,40
2018-08-04T08:43:36.054Z,40
2018-08-04T08:44:45.211Z,40
2018-08-04T08:45:55.143Z,40
2018-08-04T08:47:04.579Z,40
2018-08-04T08:48:14.264Z,40
2018-08-04T08:49:23.178Z,44
2018-08-04T08:50:32.353Z,40
2018-08-04T08:51:42.288Z,40
2018-08-04T08:52:51.467Z,4
2018-08-04T08:54:02.291Z,4
2018-08-04T08:55:12.510Z,4
2018-08-04T08:56:21.926Z,4
2018-08-04T08:57:31.586Z,4
2018-08-04T08:58:40.475Z,4
2018-08-04T08:59:49.894Z,4
2018-08-04T09:00:58.803Z,0
2018-08-04T09:02:08.225Z,0
2018-08-04T09:03:17.905Z,0
2018-08-04T09:04:26.805Z,0
2018-08-04T09:05:35.975Z,0
2018-08-04T09:06:44.897Z,0
2018-08-04T09:07:54.060Z,0
2018-08-04T09:09:02.709Z,0
2018-08-04T09:10:12.405Z,0
2018-08-04T09:11:22.343Z,0
2018-08-04T09:12:31.503Z,0
2018-08-04T09:13:40.919Z,0
2018-08-04T09:14:49.806Z,0
2018-08-04T09:15:58.973Z,0
2018-08-04T09:17:08.385Z,0
2018-08-04T09:18:18.060Z,0
2018-08-04T09:19:27.471Z,0
2018-08-04T09:20:36.660Z,0
2018-08-04T09:21:46.332Z,0
2018-08-04T09:22:55.785Z,0
2018-08-04T09:24:05.191Z,0
2018-08-04T09:25:14.876Z,0
2018-08-04T09:26:24.296Z,0
2018-08-04T09:27:33.459Z,0
2018-08-04T09:28:42.608Z,0
2018-08-04T09:29:51.242Z,0
2018-08-04T09:31:01.324Z,0
2018-08-04T09:32:11.254Z,0
2018-08-04T09:33:20.162Z,0
2018-08-04T09:34:29.564Z,0
2018-08-04T09:35:39.246Z,0
2018-08-04T09:36:48.913Z,0
2018-08-04T09:37:58.314Z,0
2018-08-04T09:39:08.148Z,0
2018-08-04T09:40:18.434Z,0
2018-08-04T09:41:27.856Z,0
2018-08-04T09:42:36.998Z,0
2018-08-04T09:43:46.419Z,0
2018-08-04T09:44:56.086Z,0
2018-08-04T09:46:05.756Z,0
2018-08-04T09:47:15.427Z,0
2018-08-04T09:48:24.340Z,0
2018-08-04T09:49:33.752Z,0
2018-08-04T09:50:43.158Z,0
2018-08-04T09:51:52.303Z,0
2018-08-04T09:53:01.454Z,0
2018-08-04T09:54:11.169Z,0
2018-08-04T09:55:20.324Z,0
2018-08-04T09:56:29.515Z,0
2018-08-04T09:57:38.652Z,0
2018-08-04T09:58:47.549Z,0
2018-08-04T09:59:57.211Z,0
2018-08-04T10:01:06.901Z,0
2018-08-04T10:02:16.059Z,0
2018-08-04T10:03:25.219Z,0
2018-08-04T10:04:34.648Z,0
2018-08-04T10:05:43.846Z,0
2018-08-04T10:06:52.758Z,0
2018-08-04T10:08:01.927Z,0
2018-08-04T10:09:11.089Z,0
2018-08-04T10:10:20.764Z,0
2018-08-04T10:11:30.308Z,0
2018-08-04T10:12:39.727Z,0
2018-08-04T10:13:49.396Z,0
2018-08-04T10:14:58.551Z,0
2018-08-04T10:16:07.963Z,0
2018-08-04T10:17:17.133Z,0
2018-08-04T10:18:26.810Z,0
2018-08-04T10:19:36.228Z,0
2018-08-04T10:20:45.639Z,0
2018-08-04T10:21:54.796Z,0
2018-08-04T10:23:04.220Z,0
2018-08-04T10:24:13.398Z,0
2018-08-04T10:25:22.814Z,0
2018-08-04T10:26:31.966Z,0
2018-08-04T10:27:41.137Z,0
2018-08-04T10:28:50.302Z,0
2018-08-04T10:29:59.992Z,0
2018-08-04T10:31:09.706Z,0
2018-08-04T10:32:19.891Z,0
2018-08-04T10:33:29.880Z,0
2018-08-04T10:34:39.553Z,0
2018-08-04T10:35:49.710Z,0
2018-08-04T10:36:59.274Z,0
2018-08-04T10:38:08.730Z,0
2018-08-04T10:39:18.146Z,0
2018-08-04T10:40:27.324Z,0
2018-08-04T10:41:36.520Z,0
2018-08-04T10:42:45.948Z,0
2018-08-04T10:43:56.139Z,0
2018-08-04T10:45:06.180Z,0
2018-08-04T10:46:15.091Z,4
2018-08-04T10:47:24.242Z,0
2018-08-04T10:48:33.684Z,0
2018-08-04T10:49:43.617Z,4
2018-08-04T10:50:52.783Z,0
2018-08-04T10:52:01.697Z,0
2018-08-04T10:53:10.853Z,0
2018-08-04T10:54:20.259Z,0
2018-08-04T10:55:29.424Z,0
2018-08-04T10:56:38.631Z,0
2018-08-04T10:57:48.303Z,0
2018-08-04T10:58:57.989Z,0
2018-08-04T11:00:07.704Z,0
2018-08-04T11:01:16.886Z,0
2018-08-04T11:02:26.297Z,0
2018-08-04T11:03:35.995Z,0
2018-08-04T11:04:45.434Z,0
2018-08-04T11:05:54.870Z,0
2018-08-04T11:07:04.030Z,0
2018-08-04T11:08:13.447Z,0
2018-08-04T11:09:22.360Z,0
2018-08-04T11:10:31.820Z,0
2018-08-04T11:11:41.489Z,0
2018-08-04T11:12:50.915Z,0
2018-08-04T11:14:00.341Z,0
2018-08-04T11:15:10.015Z,0
2018-08-04T11:16:19.422Z,0
2018-08-04T11:17:28.585Z,0
2018-08-04T11:18:38.266Z,0
2018-08-04T11:19:47.418Z,0
2018-08-04T11:20:57.085Z,4
2018-08-04T11:22:06.592Z,0
2018-08-04T11:23:15.997Z,4
2018-08-04T11:24:25.442Z,4
2018-08-04T11:25:34.935Z,4
2018-08-04T11:26:44.358Z,4
2018-08-04T11:27:53.768Z,4
2018-08-04T11:29:03.181Z,4
2018-08-04T11:30:12.863Z,4
2018-08-04T11:31:22.536Z,4
2018-08-04T11:32:32.210Z,4
2018-08-04T11:33:41.623Z,4
2018-08-04T11:34:51.622Z,4
2018-08-04T11:36:01.031Z,0
2018-08-04T11:37:10.191Z,4
2018-08-04T11:38:19.144Z,0
2018-08-04T11:39:28.578Z,0
2018-08-04T11:40:37.998Z,0
2018-08-04T11:41:47.181Z,0
2018-08-04T11:42:56.883Z,0
2018-08-04T11:44:06.066Z,0
2018-08-04T11:45:14.953Z,0
2018-08-04T11:46:23.849Z,4
2018-08-04T11:47:33.257Z,0
2018-08-04T11:48:42.661Z,0
2018-08-04T11:49:51.838Z,0
2018-08-04T11:51:01.504Z,4
2018-08-04T11:52:10.415Z,4
2018-08-04T11:53:19.828Z,4
2018-08-04T11:54:29.266Z,4
2018-08-04T11:55:39.184Z,28
2018-08-04T11:56:48.114Z,28
2018-08-04T11:57:57.281Z,4
2018-08-04T11:59:06.696Z,4
2018-08-04T12:00:16.380Z,4
2018-08-04T12:01:25.799Z,4
2018-08-04T12:02:35.223Z,4
2018-08-04T12:03:44.893Z,4
2018-08-04T12:04:54.041Z,4
2018-08-04T12:06:03.443Z,4
2018-08-04T12:07:13.112Z,4
2018-08-04T12:08:22.280Z,4
2018-08-04T12:09:31.695Z,4
2018-08-04T12:10:41.160Z,4
2018-08-04T12:11:50.596Z,4
2018-08-04T12:13:00.291Z,4
2018-08-04T12:14:09.227Z,0
2018-08-04T12:15:18.130Z,4
2018-08-04T12:16:27.553Z,4
2018-08-04T12:17:36.721Z,4
2018-08-04T12:18:45.909Z,4
2018-08-04T12:19:54.800Z,4
2018-08-04T12:21:04.219Z,4
2018-08-04T12:22:13.123Z,4
2018-08-04T12:23:22.576Z,4
2018-08-04T12:24:31.471Z,4
2018-08-04T12:25:40.920Z,4
2018-08-04T12:26:49.794Z,4
2018-08-04T12:27:59.237Z,4
2018-08-04T12:29:08.661Z,4
2018-08-04T12:30:18.338Z,4
2018-08-04T12:31:28.196Z,4
2018-08-04T12:32:37.678Z,4
2018-08-04T12:33:47.371Z,4
2018-08-04T12:34:57.071Z,4
2018-08-04T12:36:05.970Z,4
2018-08-04T12:37:15.658Z,4
2018-08-04T12:38:24.818Z,4
2018-08-04T12:39:33.708Z,8
2018-08-04T12:40:43.163Z,4
2018-08-04T12:41:53.187Z,4
2018-08-04T12:43:02.334Z,4
2018-08-04T12:44:11.307Z,4
2018-08-04T12:45:21.098Z,8
2018-08-04T12:46:30.609Z,8
2018-08-04T12:47:39.507Z,8
2018-08-04T12:48:49.187Z,8
2018-08-04T12:49:58.337Z,4
2018-08-04T12:51:07.257Z,4
2018-08-04T12:52:16.678Z,4
2018-08-04T12:53:25.830Z,8
2018-08-04T12:54:35.147Z,8
2018-08-04T12:55:44.595Z,8
2018-08-04T12:56:53.998Z,8
2018-08-04T12:58:03.167Z,8
2018-08-04T12:59:13.094Z,8
2018-08-04T13:00:22.323Z,8
2018-08-04T13:01:31.219Z,12
2018-08-04T13:02:40.924Z,12
2018-08-04T13:03:50.648Z,8
2018-08-04T13:05:00.073Z,8
2018-08-04T13:06:09.763Z,8
2018-08-04T13:07:19.702Z,8
2018-08-04T13:08:29.127Z,8
2018-08-04T13:09:38.296Z,8
2018-08-04T13:10:47.957Z,8
2018-08-04T13:11:57.499Z,8
2018-08-04T13:13:06.664Z,8
2018-08-04T13:14:16.073Z,12
2018-08-04T13:15:24.973Z,12
2018-08-04T13:16:34.378Z,12
2018-08-04T13:17:43.777Z,12
2018-08-04T13:18:53.189Z,8
2018-08-04T13:20:02.859Z,8
2018-08-04T13:21:12.015Z,12
2018-08-04T13:22:21.466Z,12
2018-08-04T13:23:30.392Z,8
2018-08-04T13:24:40.311Z,12
2018-08-04T13:25:49.463Z,12
2018-08-04T13:26:58.868Z,12
2018-08-04T13:28:08.063Z,8
2018-08-04T13:29:17.548Z,12
2018-08-04T13:30:26.861Z,8
2018-08-04T13:31:36.089Z,8
2018-08-04T13:32:45.240Z,8
2018-08-04T13:33:54.658Z,12
2018-08-04T13:35:04.343Z,12
2018-08-04T13:36:13.800Z,12
2018-08-04T13:37:23.721Z,12
2018-08-04T13:38:33.175Z,8
2018-08-04T13:39:42.338Z,12
2018-08-04T13:40:51.516Z,12
2018-08-04T13:42:00.932Z,12
2018-08-04T13:43:10.083Z,12
2018-08-04T13:44:19.239Z,12
2018-08-04T13:45:28.167Z,12
2018-08-04T13:46:37.366Z,12
2018-08-04T13:47:46.632Z,12
2018-08-04T13:48:56.300Z,12
2018-08-04T13:50:05.456Z,12
2018-08-04T13:51:14.886Z,12
2018-08-04T13:52:24.843Z,8
2018-08-04T13:53:33.748Z,12
2018-08-04T13:54:42.899Z,12
2018-08-04T13:55:52.068Z,12
2018-08-04T13:57:00.954Z,12
2018-08-04T13:58:10.110Z,12
2018-08-04T13:59:19.524Z,12
2018-08-04T14:00:28.674Z,12
2018-08-04T14:01:37.585Z,12
2018-08-04T14:02:47.253Z,16
2018-08-04T14:03:56.406Z,16
2018-08-04T14:05:06.247Z,16
2018-08-04T14:06:15.397Z,16
2018-08-04T14:07:24.315Z,12
2018-08-04T14:08:33.719Z,12
2018-08-04T14:09:43.191Z,12
2018-08-04T14:10:52.408Z,16
2018-08-04T14:12:02.173Z,16
2018-08-04T14:13:11.610Z,16
2018-08-04T14:14:20.506Z,12
2018-08-04T14:15:29.951Z,12
2018-08-04T14:16:39.121Z,12
2018-08-04T14:17:48.015Z,12
2018-08-04T14:18:57.179Z,12
2018-08-04T14:20:06.334Z,12
2018-08-04T14:21:16.005Z,12
2018-08-04T14:22:24.666Z,12
2018-08-04T14:23:33.825Z,8
2018-08-04T14:24:43.007Z,12
2018-08-04T14:25:52.675Z,8
2018-08-04T14:27:01.918Z,12
2018-08-04T14:28:11.329Z,8
2018-08-04T14:29:21.002Z,8
2018-08-04T14:30:29.662Z,12
2018-08-04T14:31:39.360Z,12
2018-08-04T14:32:49.096Z,12
2018-08-04T14:33:58.507Z,12
2018-08-04T14:35:07.821Z,8
2018-08-04T14:36:17.305Z,8
2018-08-04T14:37:27.076Z,8
2018-08-04T14:38:36.787Z,8
2018-08-04T14:39:46.706Z,8
2018-08-04T14:40:55.604Z,8
2018-08-04T14:42:04.487Z,8
2018-08-04T14:43:13.688Z,8
2018-08-04T14:44:23.376Z,8
2018-08-04T14:45:32.540Z,8
2018-08-04T14:46:42.253Z,8
2018-08-04T14:47:52.195Z,8
2018-08-04T14:49:01.619Z,4
2018-08-04T14:50:11.290Z,8
2018-08-04T14:51:20.452Z,8
2018-08-04T14:52:29.876Z,8
2018-08-04T14:53:38.530Z,4
2018-08-04T14:54:47.676Z,4
2018-08-04T14:55:56.835Z,4
2018-08-04T14:57:06.259Z,4
2018-08-04T14:58:16.180Z,4
2018-08-04T14:59:25.075Z,4
2018-08-04T15:00:34.233Z,8
2018-08-04T15:01:43.422Z,4
2018-08-04T15:02:52.090Z,8
2018-08-04T15:04:01.504Z,4
2018-08-04T15:05:10.919Z,4
2018-08-04T15:06:20.087Z,4
2018-08-04T15:07:29.513Z,4
2018-08-04T15:08:39.187Z,4
2018-08-04T15:09:48.346Z,4
2018-08-04T15:10:57.270Z,4
2018-08-04T15:12:06.174Z,0
2018-08-04T15:13:15.075Z,0
2018-08-04T15:14:24.480Z,4
2018-08-04T15:15:33.685Z,4
2018-08-04T15:16:43.155Z,4
2018-08-04T15:17:52.053Z,4
2018-08-04T15:19:00.985Z,0
2018-08-04T15:20:10.413Z,0
2018-08-04T15:21:19.051Z,0
2018-08-04T15:22:28.458Z,0
2018-08-04T15:23:37.900Z,0
2018-08-04T15:24:47.328Z,0
2018-08-04T15:25:56.505Z,0
2018-08-04T15:27:05.943Z,0
2018-08-04T15:28:15.612Z,0
2018-08-04T15:29:24.773Z,0
2018-08-04T15:30:34.447Z,0
2018-08-04T15:31:43.080Z,0
2018-08-04T15:32:52.520Z,0
2018-08-04T15:34:02.236Z,0
2018-08-04T15:35:12.349Z,0
2018-08-04T15:36:21.259Z,0
2018-08-04T15:37:29.894Z,0
2018-08-04T15:38:39.308Z,0
2018-08-04T15:39:48.472Z,0
2018-08-04T15:40:57.637Z,0
2018-08-04T15:42:06.550Z,4
2018-08-04T15:43:15.707Z,4
2018-08-04T15:44:24.909Z,4
2018-08-04T15:45:34.359Z,0
2018-08-04T15:46:43.265Z,0
2018-08-04T15:47:52.674Z,0
2018-08-04T15:49:02.093Z,0
2018-08-04T15:50:11.770Z,0
2018-08-04T15:51:20.408Z,0
2018-08-04T15:52:29.320Z,0
2018-08-04T15:53:38.991Z,0
2018-08-04T15:54:47.884Z,0
2018-08-04T15:55:57.553Z,0
2018-08-04T15:57:06.713Z,0
2018-08-04T15:58:16.120Z,0
2018-08-04T15:59:25.287Z,0
2018-08-04T16:00:34.438Z,0
2018-08-04T16:01:43.852Z,0
2018-08-04T16:02:53.267Z,0
2018-08-04T16:04:03.420Z,0
2018-08-04T16:05:13.059Z,0
2018-08-04T16:06:22.850Z,0
2018-08-04T16:07:32.481Z,0
2018-08-04T16:08:41.690Z,0
2018-08-04T16:09:50.931Z,0
2018-08-04T16:11:00.083Z,0
2018-08-04T16:12:09.490Z,0
2018-08-04T16:13:18.393Z,0
2018-08-04T16:14:27.803Z,0
2018-08-04T16:15:36.706Z,0
2018-08-04T16:16:46.249Z,0
2018-08-04T16:17:56.243Z,0
2018-08-04T16:19:05.657Z,0
2018-08-04T16:20:14.833Z,0
2018-08-04T16:21:24.235Z,0
2018-08-04T16:22:33.687Z,0
2018-08-04T16:23:42.311Z,0
2018-08-04T16:24:51.780Z,0
2018-08-04T16:26:00.950Z,0
2018-08-04T16:27:11.050Z,0
2018-08-04T16:28:20.206Z,0
2018-08-04T16:29:29.633Z,0
2018-08-04T16:30:39.286Z,0
2018-08-04T16:31:48.193Z,0
2018-08-04T16:32:57.606Z,0
2018-08-04T16:34:07.016Z,0
2018-08-04T16:35:16.171Z,0
2018-08-04T16:36:25.587Z,0
2018-08-04T16:37:34.993Z,0
2018-08-04T16:38:44.505Z,0
2018-08-04T16:39:54.364Z,0
2018-08-04T16:41:04.049Z,0
2018-08-04T16:42:13.485Z,0
2018-08-04T16:43:22.648Z,0
2018-08-04T16:44:32.699Z,0
2018-08-04T16:45:43.014Z,0
2018-08-04T16:46:52.446Z,0
2018-08-04T16:48:01.477Z,0
2018-08-04T16:49:10.909Z,0
2018-08-04T16:50:20.089Z,0
2018-08-04T16:51:30.049Z,0
2018-08-04T16:52:39.486Z,0
2018-08-04T16:53:48.642Z,0
2018-08-04T16:54:58.049Z,0
2018-08-04T16:56:07.213Z,0
2018-08-04T16:57:16.633Z,0
2018-08-04T16:58:25.796Z,0